createdAt,value
2023-04-01T00:01:22.375Z,99238.48
2023-04-01T00:03:51.947Z,99239.33
2023-04-01T00:06:20.717Z,99240.36
2023-04-01T00:08:49.027Z,99243.89
2023-04-01T00:11:20.626Z,99245.22
2023-04-01T00:13:49.285Z,99241.78
2023-04-01T00:16:22.048Z,99243.40
2023-04-01T00:18:51.715Z,99243.71
2023-04-01T00:21:20.118Z,99245.23
2023-04-01T00:23:49.571Z,99246.23
2023-04-01T00:26:20.178Z,99245.48
2023-04-01T00:28:49.036Z,99242.81
2023-04-01T00:31:17.361Z,99242.77
2023-04-01T00:33:45.913Z,99236.55
2023-04-01T00:36:15.675Z,99234.41
2023-04-01T00:38:46.036Z,99229.10
2023-04-01T00:41:16.589Z,99226.70
2023-04-01T00:43:47.930Z,99226.27
2023-04-01T00:46:16.341Z,99230.70
2023-04-01T00:48:50.417Z,99231.50
2023-04-01T00:51:21.802Z,99232.52
2023-04-01T00:53:53.610Z,99231.19
2023-04-01T00:56:43.040Z,99229.00
2023-04-01T00:59:14.451Z,99223.13
2023-04-01T01:01:43.040Z,99222.73
2023-04-01T01:04:26.779Z,99229.25
2023-04-01T01:07:10.219Z,99234.40
2023-04-01T01:09:55.508Z,99236.02
2023-04-01T01:12:54.151Z,99235.36
2023-04-01T01:15:37.711Z,99231.10
2023-04-01T01:18:24.436Z,99228.23
2023-04-01T01:21:21.862Z,99231.49
2023-04-01T01:24:08.273Z,99234.63
2023-04-01T01:26:55.298Z,99236.16
2023-04-01T01:29:35.851Z,99243.30
2023-04-01T01:32:22.661Z,99239.81
2023-04-01T01:35:21.658Z,99239.03
2023-04-01T01:37:53.537Z,99246.05
2023-04-01T01:40:22.616Z,99247.95
2023-04-01T01:42:53.286Z,99246.61
2023-04-01T01:45:22.863Z,99246.20
2023-04-01T01:47:51.566Z,99245.40
2023-04-01T01:50:20.783Z,99247.31
2023-04-01T01:52:48.931Z,99251.45
2023-04-01T01:55:38.998Z,99255.89
2023-04-01T01:58:41.500Z,99254.52
2023-04-01T02:01:33.246Z,99251.88
2023-04-01T02:04:09.093Z,99253.95
2023-04-01T02:06:40.585Z,99253.17
2023-04-01T02:09:11.712Z,99250.70
2023-04-01T02:11:45.263Z,99255.86
2023-04-01T02:14:26.130Z,99257.27
2023-04-01T02:17:01.588Z,99257.17
2023-04-01T02:19:39.958Z,99254.64
2023-04-01T02:22:11.749Z,99252.20
2023-04-01T02:24:40.050Z,99250.63
2023-04-01T02:27:11.065Z,99253.33
2023-04-01T02:29:41.518Z,99256.45
2023-04-01T02:32:09.985Z,99258.40
2023-04-01T02:34:39.095Z,99258.48
2023-04-01T02:37:07.247Z,99261.04
2023-04-01T02:39:36.239Z,99261.89
2023-04-01T02:42:04.517Z,99260.06
2023-04-01T02:44:33.610Z,99258.48
2023-04-01T02:47:02.139Z,99260.21
2023-04-01T02:49:30.896Z,99258.04
2023-04-01T02:51:59.531Z,99258.33
2023-04-01T02:54:28.058Z,99259.98
2023-04-01T02:56:56.678Z,99260.52
2023-04-01T02:59:25.325Z,99262.98
2023-04-01T03:01:53.442Z,99260.46
2023-04-01T03:04:21.794Z,99263.36
2023-04-01T03:06:51.080Z,99259.36
2023-04-01T03:09:19.766Z,99262.55
2023-04-01T03:11:48.009Z,99264.13
2023-04-01T03:14:17.346Z,99260.79
2023-04-01T03:16:46.360Z,99266.75
2023-04-01T03:19:14.924Z,99260.80
2023-04-01T03:21:43.469Z,99261.61
2023-04-01T03:24:12.086Z,99267.26
2023-04-01T03:26:44.147Z,99265.23
2023-04-01T03:29:12.734Z,99269.18
2023-04-01T03:31:40.774Z,99271.40
2023-04-01T03:34:10.209Z,99267.38
2023-04-01T03:36:38.405Z,99265.36
2023-04-01T03:39:13.263Z,99265.59
2023-04-01T03:41:42.521Z,99267.95
2023-04-01T03:44:10.847Z,99273.80
2023-04-01T03:46:40.487Z,99272.84
2023-04-01T03:49:12.967Z,99272.09
2023-04-01T03:51:45.003Z,99273.65
2023-04-01T03:54:13.331Z,99279.67
2023-04-01T03:56:41.904Z,99281.44
2023-04-01T03:59:12.759Z,99283.13
2023-04-01T04:01:41.329Z,99285.84
2023-04-01T04:04:14.394Z,99286.45
2023-04-01T04:06:45.979Z,99289.52
2023-04-01T04:09:14.965Z,99287.44
2023-04-01T04:11:43.176Z,99291.92
2023-04-01T04:14:12.339Z,99294.51
2023-04-01T04:16:41.537Z,99299.63
2023-04-01T04:19:10.531Z,99303.94
2023-04-01T04:21:38.605Z,99301.76
2023-04-01T04:24:07.606Z,99304.84
2023-04-01T04:26:56.566Z,99309.08
2023-04-01T04:29:24.852Z,99304.15
2023-04-01T04:31:53.295Z,99304.66
2023-04-01T04:34:23.656Z,99309.25
2023-04-01T04:36:52.027Z,99308.30
2023-04-01T04:39:20.604Z,99305.13
2023-04-01T04:41:50.525Z,99303.09
2023-04-01T04:44:20.646Z,99303.94
2023-04-01T04:46:49.171Z,99300.45
2023-04-01T04:49:18.321Z,99296.63
2023-04-01T04:51:47.463Z,99292.43
2023-04-01T04:54:16.516Z,99296.60
2023-04-01T04:56:54.692Z,99297.90
2023-04-01T04:59:26.480Z,99296.37
2023-04-01T05:02:07.595Z,99295.25
2023-04-01T05:04:37.855Z,99294.44
2023-04-01T05:07:08.396Z,99298.11
2023-04-01T05:09:40.068Z,99297.95
2023-04-01T05:12:08.775Z,99297.02
2023-04-01T05:14:55.083Z,99296.48
2023-04-01T05:17:24.084Z,99293.76
2023-04-01T05:19:53.887Z,99291.70
2023-04-01T05:22:22.676Z,99288.23
2023-04-01T05:24:51.147Z,99287.52
2023-04-01T05:27:19.815Z,99282.62
2023-04-01T05:29:54.361Z,99283.98
2023-04-01T05:32:38.706Z,99289.73
2023-04-01T05:35:08.301Z,99293.02
2023-04-01T05:37:36.579Z,99293.21
2023-04-01T05:40:07.034Z,99291.09
2023-04-01T05:42:36.931Z,99285.20
2023-04-01T05:45:07.769Z,99289.22
2023-04-01T05:48:00.756Z,99298.05
2023-04-01T05:50:30.950Z,99299.73
2023-04-01T05:52:59.127Z,99302.77
2023-04-01T05:55:27.708Z,99306.05
2023-04-01T05:57:56.489Z,99309.02
2023-04-01T06:00:24.868Z,99313.46
2023-04-01T06:02:54.943Z,99310.98
2023-04-01T06:05:30.262Z,99308.33
2023-04-01T06:08:02.494Z,99310.41
2023-04-01T06:10:53.228Z,99313.33
2023-04-01T06:13:28.743Z,99313.70
2023-04-01T06:16:28.522Z,99316.21
2023-04-01T06:19:00.637Z,99318.89
2023-04-01T06:21:51.210Z,99316.95
2023-04-01T06:24:27.803Z,99310.98
2023-04-01T06:27:20.846Z,99311.82
2023-04-01T06:30:08.338Z,99316.67
2023-04-01T06:32:58.865Z,99319.67
2023-04-01T06:35:51.408Z,99320.08
2023-04-01T06:38:28.279Z,99320.11
2023-04-01T06:41:24.244Z,99320.77
2023-04-01T06:44:27.583Z,99316.63
2023-04-01T06:47:50.254Z,99310.60
2023-04-01T06:50:58.446Z,99303.08
2023-04-01T06:53:55.145Z,99307.64
2023-04-01T06:56:44.006Z,99316.29
2023-04-01T06:59:23.851Z,99316.42
2023-04-01T07:01:54.790Z,99312.10
2023-04-01T07:04:27.147Z,99311.51
2023-04-01T07:07:04.858Z,99309.02
2023-04-01T07:09:41.802Z,99309.41
2023-04-01T07:12:44.312Z,99309.55
2023-04-01T07:16:10.251Z,99310.00
2023-04-01T07:18:54.254Z,99309.14
2023-04-01T07:21:33.760Z,99307.05
2023-04-01T07:24:10.237Z,99310.77
2023-04-01T07:26:43.976Z,99312.22
2023-04-01T07:29:16.561Z,99317.36
2023-04-01T07:32:05.851Z,99312.98
2023-04-01T07:34:44.573Z,99307.04
2023-04-01T07:37:14.918Z,99305.26
2023-04-01T07:40:05.706Z,99306.70
2023-04-01T07:42:45.763Z,99304.04
2023-04-01T07:45:46.431Z,99304.08
2023-04-01T07:48:40.729Z,99297.08
2023-04-01T07:51:27.500Z,99293.54
2023-04-01T07:53:59.782Z,99293.77
2023-04-01T07:57:01.805Z,99293.66
2023-04-01T08:00:12.689Z,99294.71
2023-04-01T08:02:54.157Z,99297.73
2023-04-01T08:05:32.168Z,99303.69
2023-04-01T08:08:02.939Z,99311.55
2023-04-01T08:11:04.096Z,99317.29
2023-04-01T08:14:12.604Z,99314.95
2023-04-01T08:17:04.128Z,99321.52
2023-04-01T08:20:07.424Z,99328.56
2023-04-01T08:22:43.072Z,99335.70
2023-04-01T08:25:25.992Z,99345.77
2023-04-01T08:28:05.751Z,99350.17
2023-04-01T08:30:43.149Z,99349.13
2023-04-01T08:33:21.029Z,99348.54
2023-04-01T08:36:05.013Z,99351.38
2023-04-01T08:38:44.010Z,99345.52
2023-04-01T08:41:40.812Z,99339.58
2023-04-01T08:44:39.745Z,99339.30
2023-04-01T08:47:39.372Z,99336.95
2023-04-01T08:50:29.752Z,99343.23
2023-04-01T08:53:33.581Z,99338.92
2023-04-01T08:56:22.009Z,99334.76
2023-04-01T08:59:13.882Z,99331.35
2023-04-01T09:02:05.980Z,99335.52
2023-04-01T09:05:23.336Z,99339.35
2023-04-01T09:08:17.306Z,99331.05
2023-04-01T09:10:51.913Z,99331.65
2023-04-01T09:14:28.897Z,99336.13
2023-04-01T09:17:20.574Z,99337.81
2023-04-01T09:20:18.856Z,99338.73
2023-04-01T09:23:02.651Z,99342.12
2023-04-01T09:25:53.340Z,99342.23
2023-04-01T09:28:39.864Z,99342.48
2023-04-01T09:31:21.796Z,99338.74
2023-04-01T09:34:36.732Z,99336.24
2023-04-01T09:37:19.091Z,99337.66
2023-04-01T09:40:16.930Z,99333.16
2023-04-01T09:43:15.605Z,99331.84
2023-04-01T09:45:53.532Z,99332.73
2023-04-01T09:48:31.972Z,99334.20
2023-04-01T09:51:31.941Z,99330.67
2023-04-01T09:54:28.580Z,99331.67
2023-04-01T09:57:20.574Z,99331.52
2023-04-01T10:00:14.184Z,99323.91
2023-04-01T10:03:12.606Z,99319.00
2023-04-01T10:06:05.364Z,99313.10
2023-04-01T10:08:59.083Z,99309.52
2023-04-01T10:11:45.898Z,99305.08
2023-04-01T10:14:28.565Z,99302.66
2023-04-01T10:17:23.398Z,99306.95
2023-04-01T10:20:27.937Z,99301.33
2023-04-01T10:23:16.436Z,99300.88
2023-04-01T10:26:17.022Z,99298.02
2023-04-01T10:28:49.296Z,99298.08
2023-04-01T10:32:18.456Z,99296.65
2023-04-01T10:34:57.627Z,99298.84
2023-04-01T10:37:54.280Z,99295.06
2023-04-01T10:40:31.881Z,99291.74
2023-04-01T10:43:43.375Z,99287.36
2023-04-01T10:46:22.999Z,99280.70
2023-04-01T10:49:03.200Z,99277.77
2023-04-01T10:51:47.198Z,99278.56
2023-04-01T10:54:55.545Z,99282.27
2023-04-01T10:58:09.754Z,99280.52
2023-04-01T11:01:11.141Z,99283.50
2023-04-01T11:04:53.335Z,99280.06
2023-04-01T11:08:04.933Z,99277.36
2023-04-01T11:22:32.265Z,99262.73
2023-04-01T11:25:35.627Z,99250.63
2023-04-01T11:28:42.894Z,99251.39
2023-04-01T11:31:21.295Z,99247.31
2023-04-01T11:34:04.294Z,99240.88
2023-04-01T11:36:53.596Z,99234.99
2023-04-01T11:39:54.799Z,99234.33
2023-04-01T11:43:32.426Z,99228.72
2023-04-01T11:47:02.572Z,99222.08
2023-04-01T11:49:38.193Z,99216.35
2023-04-01T11:52:37.095Z,99213.23
2023-04-01T11:55:36.503Z,99208.17
2023-04-01T11:58:13.678Z,99213.23
2023-04-01T12:01:13.916Z,99209.38
2023-04-01T12:03:42.610Z,99206.38
2023-04-01T12:06:46.609Z,99203.30
2023-04-01T12:09:26.644Z,99199.52
2023-04-01T12:12:24.906Z,99195.10
2023-04-01T12:15:22.197Z,99197.92
2023-04-01T12:18:16.797Z,99197.60
2023-04-01T12:20:56.965Z,99200.00
2023-04-01T12:23:44.473Z,99200.92
2023-04-01T12:26:44.393Z,99199.02
2023-04-01T12:29:15.447Z,99200.23
2023-04-01T12:32:02.194Z,99200.61
2023-04-01T12:34:54.107Z,99199.25
2023-04-01T12:38:15.709Z,99197.77
2023-04-01T12:40:48.287Z,99192.71
2023-04-01T12:43:27.574Z,99190.52
2023-04-01T12:46:30.245Z,99190.52
2023-04-01T12:49:04.830Z,99193.21
2023-04-01T12:51:50.200Z,99194.89
2023-04-01T12:54:40.601Z,99193.69
2023-04-01T12:57:31.226Z,99189.60
2023-04-01T13:00:24.564Z,99186.33
2023-04-01T13:03:15.879Z,99188.23
2023-04-01T13:05:44.371Z,99182.39
2023-04-01T13:08:34.262Z,99183.69
2023-04-01T13:11:22.031Z,99181.35
2023-04-01T13:14:24.988Z,99190.37
2023-04-01T13:17:02.207Z,99190.30
2023-04-01T13:19:44.754Z,99190.67
2023-04-01T13:22:19.400Z,99182.95
2023-04-01T13:24:54.387Z,99181.95
2023-04-01T13:27:22.607Z,99184.77
2023-04-01T13:30:15.255Z,99178.58
2023-04-01T13:33:02.737Z,99176.33
2023-04-01T13:35:46.617Z,99174.12
2023-04-01T13:38:24.624Z,99177.30
2023-04-01T13:41:03.029Z,99178.14
2023-04-01T13:43:54.159Z,99175.89
2023-04-01T13:46:51.384Z,99174.61
2023-04-01T13:49:48.154Z,99177.54
2023-04-01T13:52:25.604Z,99176.76
2023-04-01T13:55:14.146Z,99178.55
2023-04-01T13:57:58.859Z,99176.78
2023-04-01T14:00:44.286Z,99174.73
2023-04-01T14:03:50.596Z,99179.24
2023-04-01T14:06:44.184Z,99178.52
2023-04-01T14:09:27.712Z,99176.23
2023-04-01T14:12:10.782Z,99179.02
2023-04-01T14:14:54.691Z,99181.40
2023-04-01T14:17:31.462Z,99181.57
2023-04-01T14:20:49.316Z,99177.81
2023-04-01T14:23:25.681Z,99178.29
2023-04-01T14:26:02.990Z,99179.76
2023-04-01T14:28:47.713Z,99183.14
2023-04-01T14:31:31.984Z,99183.11
2023-04-01T14:34:06.901Z,99184.69
2023-04-01T14:36:43.071Z,99188.23
2023-04-01T14:39:42.673Z,99187.54
2023-04-01T14:42:29.134Z,99187.27
2023-04-01T14:45:39.736Z,99191.71
2023-04-01T14:48:25.484Z,99195.26
2023-04-01T14:50:55.807Z,99195.20
2023-04-01T14:53:27.253Z,99197.89
2023-04-01T14:55:59.904Z,99199.39
2023-04-01T14:58:47.210Z,99200.81
2023-04-01T15:01:34.271Z,99202.88
2023-04-01T15:04:12.227Z,99200.45
2023-04-01T15:07:03.562Z,99202.34
2023-04-01T15:09:40.087Z,99203.22
2023-04-01T15:12:24.767Z,99204.97
2023-04-01T15:15:57.836Z,99200.52
2023-04-01T15:19:01.866Z,99201.96
2023-04-01T15:21:41.029Z,99208.69
2023-04-01T15:24:18.867Z,99210.68
2023-04-01T15:27:13.360Z,99215.79
2023-04-01T15:29:49.167Z,99219.31
2023-04-01T15:32:38.764Z,99219.94
2023-04-01T15:35:15.842Z,99225.86
2023-04-01T15:38:43.914Z,99228.80
2023-04-01T15:41:30.217Z,99234.26
2023-04-01T15:43:58.911Z,99237.70
2023-04-01T15:46:44.582Z,99241.45
2023-04-01T15:49:32.423Z,99245.89
2023-04-01T15:52:36.032Z,99247.02
2023-04-01T15:55:27.068Z,99249.09
2023-04-01T15:58:05.817Z,99253.33
2023-04-01T16:01:08.483Z,99255.30
2023-04-01T16:04:09.049Z,99262.10
2023-04-01T16:07:16.773Z,99263.31
2023-04-01T16:09:51.517Z,99266.70
2023-04-01T16:12:43.953Z,99264.75
2023-04-01T16:15:30.716Z,99262.25
2023-04-01T16:18:05.784Z,99265.02
2023-04-01T16:20:57.112Z,99269.16
2023-04-01T16:26:14.265Z,99281.27
2023-04-01T16:29:24.935Z,99282.50
2023-04-01T16:32:33.463Z,99283.73
2023-04-01T16:35:40.695Z,99284.11
2023-04-01T16:38:33.784Z,99290.92
2023-04-01T16:41:06.157Z,99295.39
2023-04-01T16:43:47.478Z,99301.52
2023-04-01T16:46:32.975Z,99300.64
2023-04-01T16:49:06.738Z,99304.23
2023-04-01T16:51:48.932Z,99310.80
2023-04-01T16:54:31.292Z,99311.38
2023-04-01T16:57:11.359Z,99312.02
2023-04-01T17:00:00.171Z,99307.11
2023-04-01T17:02:32.392Z,99309.90
2023-04-01T17:05:10.641Z,99317.21
2023-04-01T17:08:03.505Z,99323.41
2023-04-01T17:10:54.993Z,99325.38
2023-04-01T17:13:37.210Z,99330.20
2023-04-01T17:16:13.492Z,99330.38
2023-04-01T17:18:44.320Z,99332.85
2023-04-01T17:21:19.029Z,99335.43
2023-04-01T17:24:17.253Z,99334.91
2023-04-01T17:27:01.531Z,99338.11
2023-04-01T17:29:47.898Z,99340.92
2023-04-01T17:32:28.839Z,99341.55
2023-04-01T17:35:10.749Z,99342.42
2023-04-01T17:37:55.572Z,99345.94
2023-04-01T17:40:32.434Z,99348.07
2023-04-01T17:43:14.562Z,99349.77
2023-04-01T17:45:50.671Z,99354.05
2023-04-01T17:48:35.003Z,99353.92
2023-04-01T17:51:16.436Z,99356.97
2023-04-01T17:53:56.750Z,99358.05
2023-04-01T17:56:35.595Z,99353.52
2023-04-01T17:59:20.239Z,99353.69
2023-04-01T18:02:25.183Z,99352.02
2023-04-01T18:05:12.290Z,99351.05
2023-04-01T18:08:18.975Z,99351.66
2023-04-01T18:11:06.092Z,99349.79
2023-04-01T18:13:34.872Z,99355.20
2023-04-01T18:16:31.570Z,99352.04
2023-04-01T18:19:16.727Z,99351.73
2023-04-01T18:21:48.862Z,99348.63
2023-04-01T18:24:20.617Z,99346.73
2023-04-01T18:27:11.033Z,99349.23
2023-04-01T18:29:51.747Z,99345.83
2023-04-01T18:32:44.248Z,99348.93
2023-04-01T18:35:51.952Z,99345.27
2023-04-01T18:38:36.607Z,99343.35
2023-04-01T18:41:27.359Z,99344.00
2023-04-01T18:44:24.025Z,99344.87
2023-04-01T18:47:16.297Z,99343.95
2023-04-01T18:50:03.215Z,99343.72
2023-04-01T18:52:37.305Z,99346.20
2023-04-01T18:55:05.847Z,99344.87
2023-04-01T18:57:51.770Z,99346.25
2023-04-01T19:00:23.687Z,99344.88
2023-04-01T19:03:27.331Z,99347.11
2023-04-01T19:05:55.931Z,99347.65
2023-04-01T19:08:29.568Z,99353.95
2023-04-01T19:11:11.933Z,99350.64
2023-04-01T19:14:03.763Z,99348.69
2023-04-01T19:16:32.191Z,99350.34
2023-04-01T19:19:11.887Z,99348.02
2023-04-01T19:21:48.022Z,99351.67
2023-04-01T19:24:42.403Z,99351.48
2023-04-01T19:27:39.592Z,99351.66
2023-04-01T19:30:19.907Z,99351.75
2023-04-01T19:32:59.345Z,99353.91
2023-04-01T19:36:14.912Z,99354.44
2023-04-01T19:38:54.937Z,99352.55
2023-04-01T19:41:42.072Z,99346.40
2023-04-01T19:44:42.377Z,99349.05
2023-04-01T19:47:21.373Z,99349.80
2023-04-01T19:50:05.156Z,99351.50
2023-04-01T19:52:42.950Z,99353.15
2023-04-01T19:55:38.686Z,99350.41
2023-04-01T19:58:21.951Z,99348.14
2023-04-01T20:00:53.245Z,99346.40
2023-04-01T20:03:40.995Z,99345.26
2023-04-01T20:06:17.920Z,99348.23
2023-04-01T20:08:57.092Z,99350.05
2023-04-01T20:11:34.583Z,99346.65
2023-04-01T20:14:11.462Z,99344.85
2023-04-01T20:16:42.348Z,99348.66
2023-04-01T20:19:12.955Z,99345.10
2023-04-01T20:21:47.049Z,99347.14
2023-04-01T20:24:15.055Z,99350.50
2023-04-01T20:26:47.084Z,99350.87
2023-04-01T20:29:53.551Z,99353.23
2023-04-01T20:32:40.492Z,99355.00
2023-04-01T20:35:22.440Z,99354.31
2023-04-01T20:38:13.373Z,99351.77
2023-04-01T20:40:49.970Z,99354.63
2023-04-01T20:43:21.500Z,99353.39
2023-04-01T20:45:52.376Z,99354.73
2023-04-01T20:48:20.714Z,99358.20
2023-04-01T20:50:50.755Z,99351.41
2023-04-01T20:53:27.926Z,99353.95
2023-04-01T20:56:14.441Z,99355.63
2023-04-01T20:58:42.375Z,99354.65
2023-04-01T21:01:21.161Z,99358.94
2023-04-01T21:03:50.932Z,99357.46
2023-04-01T21:06:44.099Z,99359.63
2023-04-01T21:09:31.411Z,99356.11
2023-04-01T21:12:13.207Z,99358.65
2023-04-01T21:14:47.756Z,99361.11
2023-04-01T21:17:36.630Z,99365.45
2023-04-01T21:20:05.688Z,99363.48
2023-04-01T21:22:56.224Z,99361.84
2023-04-01T21:25:27.081Z,99357.81
2023-04-01T21:27:58.483Z,99355.59
2023-04-01T21:30:45.584Z,99356.80
2023-04-01T21:33:31.603Z,99359.52
2023-04-01T21:36:11.629Z,99361.89
2023-04-01T21:38:59.678Z,99362.16
2023-04-01T21:41:46.228Z,99362.72
2023-04-01T21:44:29.205Z,99363.80
2023-04-01T21:47:21.660Z,99364.86
2023-04-01T21:50:24.242Z,99362.90
2023-04-01T21:52:58.365Z,99362.30
2023-04-01T21:55:54.878Z,99362.98
2023-04-01T21:58:44.658Z,99363.40
2023-04-01T22:01:37.877Z,99362.23
2023-04-01T22:04:40.916Z,99361.02
2023-04-01T22:07:47.795Z,99362.45
2023-04-01T22:10:29.178Z,99363.50
2023-04-01T22:13:18.155Z,99360.98
2023-04-01T22:15:58.546Z,99365.53
2023-04-01T22:18:45.414Z,99366.81
2023-04-01T22:21:17.463Z,99363.90
2023-04-01T22:23:49.345Z,99361.57
2023-04-01T22:26:39.747Z,99361.27
2023-04-01T22:29:26.094Z,99364.73
2023-04-01T22:32:07.906Z,99366.27
2023-04-01T22:34:44.233Z,99364.33
2023-04-01T22:37:30.649Z,99366.02
2023-04-01T22:40:28.267Z,99365.42
2023-04-01T22:43:05.152Z,99361.33
2023-04-01T22:45:55.062Z,99358.48
2023-04-01T22:48:44.954Z,99357.76
2023-04-01T22:51:26.095Z,99359.19
2023-04-01T22:54:23.560Z,99363.44
2023-04-01T22:57:09.052Z,99362.23
2023-04-01T23:00:09.771Z,99364.84
2023-04-01T23:02:47.077Z,99365.79
2023-04-01T23:05:18.650Z,99367.35
2023-04-01T23:08:05.532Z,99370.05
2023-04-01T23:10:41.381Z,99370.48
2023-04-01T23:13:21.766Z,99369.70
2023-04-01T23:15:50.132Z,99375.57
2023-04-01T23:18:37.865Z,99373.69
2023-04-01T23:21:12.277Z,99371.95
2023-04-01T23:23:43.426Z,99370.17
2023-04-01T23:29:17.667Z,99367.80
2023-04-01T23:32:06.147Z,99370.95
2023-04-01T23:34:36.039Z,99368.48
2023-04-01T23:37:14.534Z,99367.60
2023-04-01T23:39:45.072Z,99366.13
2023-04-01T23:42:27.233Z,99370.13
2023-04-01T23:45:03.842Z,99366.00
2023-04-01T23:47:37.465Z,99368.38
2023-04-01T23:50:12.282Z,99367.27
2023-04-01T23:52:47.231Z,99368.23
2023-04-01T23:55:19.336Z,99364.42
2023-04-01T23:58:06.828Z,99367.27
